sensor_id;sensor_type;location;lat;lon;timestamp;temperature;humidity
3134;DHT22;1577;49.912;10.924;2022-08-21T00:00:18;16.00;99.90
3134;DHT22;1577;49.912;10.924;2022-08-21T00:02:54;16.00;99.90
3134;DHT22;1577;49.912;10.924;2022-08-21T00:05:21;15.90;99.90
3134;DHT22;1577;49.912;10.924;2022-08-21T00:07:47;16.00;99.90
3134;DHT22;1577;49.912;10.924;2022-08-21T00:10:13;15.90;99.90
3134;DHT22;1577;49.912;10.924;2022-08-21T00:12:41;15.90;99.90
3134;DHT22;1577;49.912;10.924;2022-08-21T00:15:08;15.80;99.90
3134;DHT22;1577;49.912;10.924;2022-08-21T00:17:34;15.90;99.90
3134;DHT22;1577;49.912;10.924;2022-08-21T00:20:00;15.90;99.90
3134;DHT22;1577;49.912;10.924;2022-08-21T00:22:26;15.80;99.90
3134;DHT22;1577;49.912;10.924;2022-08-21T00:24:51;15.90;99.90
3134;DHT22;1577;49.912;10.924;2022-08-21T00:27:17;16.00;99.90
3134;DHT22;1577;49.912;10.924;2022-08-21T00:29:42;15.90;99.90
3134;DHT22;1577;49.912;10.924;2022-08-21T00:32:08;15.90;99.90
3134;DHT22;1577;49.912;10.924;2022-08-21T00:34:34;15.80;99.90
3134;DHT22;1577;49.912;10.924;2022-08-21T00:37:00;15.80;99.90
3134;DHT22;1577;49.912;10.924;2022-08-21T00:39:25;15.90;99.90
3134;DHT22;1577;49.912;10.924;2022-08-21T00:41:51;15.80;99.90
3134;DHT22;1577;49.912;10.924;2022-08-21T00:44:16;15.70;99.90
3134;DHT22;1577;49.912;10.924;2022-08-21T00:46:43;15.70;99.90
3134;DHT22;1577;49.912;10.924;2022-08-21T00:49:10;15.70;99.90
3134;DHT22;1577;49.912;10.924;2022-08-21T00:51:50;15.70;99.90
3134;DHT22;1577;49.912;10.924;2022-08-21T00:54:19;15.70;99.90
3134;DHT22;1577;49.912;10.924;2022-08-21T00:56:57;15.70;99.90
3134;DHT22;1577;49.912;10.924;2022-08-21T00:59:25;15.70;99.90
3134;DHT22;1577;49.912;10.924;2022-08-21T01:01:51;15.70;99.90
3134;DHT22;1577;49.912;10.924;2022-08-21T01:04:18;15.60;99.90
3134;DHT22;1577;49.912;10.924;2022-08-21T01:06:44;15.60;99.90
3134;DHT22;1577;49.912;10.924;2022-08-21T01:09:10;15.60;99.90
3134;DHT22;1577;49.912;10.924;2022-08-21T01:11:36;15.70;99.90
3134;DHT22;1577;49.912;10.924;2022-08-21T01:14:02;15.70;99.90
3134;DHT22;1577;49.912;10.924;2022-08-21T01:16:28;15.70;99.90
3134;DHT22;1577;49.912;10.924;2022-08-21T01:18:55;15.60;99.90
3134;DHT22;1577;49.912;10.924;2022-08-21T01:21:23;15.50;99.90
3134;DHT22;1577;49.912;10.924;2022-08-21T01:23:51;15.50;99.90
3134;DHT22;1577;49.912;10.924;2022-08-21T01:26:21;15.40;99.90
3134;DHT22;1577;49.912;10.924;2022-08-21T01:29:16;15.40;99.90
3134;DHT22;1577;49.912;10.924;2022-08-21T01:31:42;15.40;99.90
3134;DHT22;1577;49.912;10.924;2022-08-21T01:34:08;15.40;99.90
3134;DHT22;1577;49.912;10.924;2022-08-21T01:36:34;15.40;99.90
3134;DHT22;1577;49.912;10.924;2022-08-21T01:39:00;15.40;99.90
3134;DHT22;1577;49.912;10.924;2022-08-21T01:41:26;15.40;99.90
3134;DHT22;1577;49.912;10.924;2022-08-21T01:43:52;15.30;99.90
3134;DHT22;1577;49.912;10.924;2022-08-21T01:46:17;15.30;99.90
3134;DHT22;1577;49.912;10.924;2022-08-21T01:48:43;15.30;99.90
3134;DHT22;1577;49.912;10.924;2022-08-21T01:51:09;15.30;99.90
3134;DHT22;1577;49.912;10.924;2022-08-21T01:53:36;15.30;99.90
3134;DHT22;1577;49.912;10.924;2022-08-21T01:56:05;15.30;99.90
3134;DHT22;1577;49.912;10.924;2022-08-21T01:58:31;15.20;99.90
3134;DHT22;1577;49.912;10.924;2022-08-21T02:00:56;15.30;99.90
3134;DHT22;1577;49.912;10.924;2022-08-21T02:03:22;15.20;99.90
3134;DHT22;1577;49.912;10.924;2022-08-21T02:05:47;15.20;99.90
3134;DHT22;1577;49.912;10.924;2022-08-21T02:08:13;15.30;99.90
3134;DHT22;1577;49.912;10.924;2022-08-21T02:10:39;15.40;99.90
3134;DHT22;1577;49.912;10.924;2022-08-21T02:13:06;15.40;99.90
3134;DHT22;1577;49.912;10.924;2022-08-21T02:15:33;15.40;99.90
3134;DHT22;1577;49.912;10.924;2022-08-21T02:18:00;15.50;99.90
3134;DHT22;1577;49.912;10.924;2022-08-21T02:20:38;15.50;99.90
3134;DHT22;1577;49.912;10.924;2022-08-21T02:23:05;15.50;99.90
3134;DHT22;1577;49.912;10.924;2022-08-21T02:25:31;15.40;99.90
3134;DHT22;1577;49.912;10.924;2022-08-21T02:27:58;15.40;99.90
3134;DHT22;1577;49.912;10.924;2022-08-21T02:30:28;15.40;99.90
3134;DHT22;1577;49.912;10.924;2022-08-21T02:32:54;15.50;99.90
3134;DHT22;1577;49.912;10.924;2022-08-21T02:35:21;15.50;99.90
3134;DHT22;1577;49.912;10.924;2022-08-21T02:37:53;15.50;99.90
3134;DHT22;1577;49.912;10.924;2022-08-21T02:40:21;15.50;99.90
3134;DHT22;1577;49.912;10.924;2022-08-21T02:42:47;15.50;99.90
3134;DHT22;1577;49.912;10.924;2022-08-21T02:45:14;15.60;99.90
3134;DHT22;1577;49.912;10.924;2022-08-21T02:47:46;15.60;99.90
3134;DHT22;1577;49.912;10.924;2022-08-21T02:50:12;15.60;99.90
3134;DHT22;1577;49.912;10.924;2022-08-21T02:52:38;15.60;99.90
3134;DHT22;1577;49.912;10.924;2022-08-21T02:55:04;15.60;99.90
3134;DHT22;1577;49.912;10.924;2022-08-21T02:57:30;15.60;99.90
3134;DHT22;1577;49.912;10.924;2022-08-21T02:59:57;15.70;99.90
3134;DHT22;1577;49.912;10.924;2022-08-21T03:02:23;15.70;99.90
3134;DHT22;1577;49.912;10.924;2022-08-21T03:04:49;15.70;99.90
3134;DHT22;1577;49.912;10.924;2022-08-21T03:07:15;15.70;99.90
3134;DHT22;1577;49.912;10.924;2022-08-21T03:09:41;15.80;99.90
3134;DHT22;1577;49.912;10.924;2022-08-21T03:12:06;15.70;99.90
3134;DHT22;1577;49.912;10.924;2022-08-21T03:14:32;15.70;99.90
3134;DHT22;1577;49.912;10.924;2022-08-21T03:16:58;15.80;99.90
3134;DHT22;1577;49.912;10.924;2022-08-21T03:19:23;15.80;99.90
3134;DHT22;1577;49.912;10.924;2022-08-21T03:21:49;15.80;99.90
3134;DHT22;1577;49.912;10.924;2022-08-21T03:24:14;15.80;99.90
3134;DHT22;1577;49.912;10.924;2022-08-21T03:26:40;15.80;99.90
3134;DHT22;1577;49.912;10.924;2022-08-21T03:29:05;15.80;99.90
3134;DHT22;1577;49.912;10.924;2022-08-21T03:31:32;15.90;99.90
3134;DHT22;1577;49.912;10.924;2022-08-21T03:33:58;15.80;99.90
3134;DHT22;1577;49.912;10.924;2022-08-21T03:36:24;15.90;99.90
3134;DHT22;1577;49.912;10.924;2022-08-21T03:38:50;15.80;99.90
3134;DHT22;1577;49.912;10.924;2022-08-21T03:41:15;15.90;99.90
3134;DHT22;1577;49.912;10.924;2022-08-21T03:43:41;15.90;99.90
3134;DHT22;1577;49.912;10.924;2022-08-21T03:46:07;15.90;99.90
3134;DHT22;1577;49.912;10.924;2022-08-21T03:48:34;15.90;99.90
3134;DHT22;1577;49.912;10.924;2022-08-21T03:51:00;15.90;99.90
3134;DHT22;1577;49.912;10.924;2022-08-21T03:53:27;15.90;99.90
3134;DHT22;1577;49.912;10.924;2022-08-21T03:55:53;15.80;99.90
3134;DHT22;1577;49.912;10.924;2022-08-21T03:58:22;15.80;99.90
3134;DHT22;1577;49.912;10.924;2022-08-21T04:00:50;15.70;99.90
3134;DHT22;1577;49.912;10.924;2022-08-21T04:03:17;15.70;99.90
3134;DHT22;1577;49.912;10.924;2022-08-21T04:05:43;15.70;99.90
3134;DHT22;1577;49.912;10.924;2022-08-21T04:08:10;15.70;99.90
3134;DHT22;1577;49.912;10.924;2022-08-21T04:10:39;15.60;99.90
3134;DHT22;1577;49.912;10.924;2022-08-21T04:13:06;15.60;99.90
3134;DHT22;1577;49.912;10.924;2022-08-21T04:15:32;15.60;99.90
3134;DHT22;1577;49.912;10.924;2022-08-21T04:17:58;15.70;99.90
3134;DHT22;1577;49.912;10.924;2022-08-21T04:20:25;15.70;99.90
3134;DHT22;1577;49.912;10.924;2022-08-21T04:22:52;15.60;99.90
3134;DHT22;1577;49.912;10.924;2022-08-21T04:25:20;15.60;99.90
3134;DHT22;1577;49.912;10.924;2022-08-21T04:27:45;15.70;99.90
3134;DHT22;1577;49.912;10.924;2022-08-21T04:30:13;15.60;99.90
3134;DHT22;1577;49.912;10.924;2022-08-21T04:32:45;15.60;99.90
3134;DHT22;1577;49.912;10.924;2022-08-21T04:35:13;15.60;99.90
3134;DHT22;1577;49.912;10.924;2022-08-21T04:37:38;15.70;99.90
3134;DHT22;1577;49.912;10.924;2022-08-21T04:40:05;15.70;99.90
3134;DHT22;1577;49.912;10.924;2022-08-21T04:42:31;15.50;99.90
3134;DHT22;1577;49.912;10.924;2022-08-21T04:44:56;15.50;99.90
3134;DHT22;1577;49.912;10.924;2022-08-21T04:47:23;15.60;99.90
3134;DHT22;1577;49.912;10.924;2022-08-21T04:49:49;15.70;99.90
3134;DHT22;1577;49.912;10.924;2022-08-21T04:52:18;15.70;99.90
3134;DHT22;1577;49.912;10.924;2022-08-21T04:54:45;15.70;99.90
3134;DHT22;1577;49.912;10.924;2022-08-21T04:57:13;15.80;99.90
3134;DHT22;1577;49.912;10.924;2022-08-21T04:59:44;15.80;99.90
3134;DHT22;1577;49.912;10.924;2022-08-21T05:02:11;15.80;99.90
3134;DHT22;1577;49.912;10.924;2022-08-21T05:04:42;15.80;99.90
3134;DHT22;1577;49.912;10.924;2022-08-21T05:07:15;15.80;99.90
3134;DHT22;1577;49.912;10.924;2022-08-21T05:09:42;15.80;99.90
3134;DHT22;1577;49.912;10.924;2022-08-21T05:12:08;15.80;99.90
3134;DHT22;1577;49.912;10.924;2022-08-21T05:14:34;15.80;99.90
3134;DHT22;1577;49.912;10.924;2022-08-21T05:17:00;15.80;99.90
3134;DHT22;1577;49.912;10.924;2022-08-21T05:19:26;15.80;99.90
3134;DHT22;1577;49.912;10.924;2022-08-21T05:21:52;15.80;99.90
3134;DHT22;1577;49.912;10.924;2022-08-21T05:24:19;15.80;99.90
3134;DHT22;1577;49.912;10.924;2022-08-21T05:26:45;15.80;99.90
3134;DHT22;1577;49.912;10.924;2022-08-21T05:29:11;15.80;99.90
3134;DHT22;1577;49.912;10.924;2022-08-21T05:31:37;15.90;99.90
3134;DHT22;1577;49.912;10.924;2022-08-21T05:34:04;16.00;99.90
3134;DHT22;1577;49.912;10.924;2022-08-21T05:36:29;16.00;99.90
3134;DHT22;1577;49.912;10.924;2022-08-21T05:38:55;16.00;99.90
3134;DHT22;1577;49.912;10.924;2022-08-21T05:41:21;15.90;99.90
3134;DHT22;1577;49.912;10.924;2022-08-21T05:43:47;15.90;99.90
3134;DHT22;1577;49.912;10.924;2022-08-21T05:46:13;15.90;99.90
3134;DHT22;1577;49.912;10.924;2022-08-21T05:48:38;15.90;99.90
3134;DHT22;1577;49.912;10.924;2022-08-21T05:51:13;15.90;99.90
3134;DHT22;1577;49.912;10.924;2022-08-21T05:53:40;15.90;99.90
3134;DHT22;1577;49.912;10.924;2022-08-21T05:56:08;16.00;99.90
3134;DHT22;1577;49.912;10.924;2022-08-21T05:58:34;16.10;99.90
3134;DHT22;1577;49.912;10.924;2022-08-21T06:01:01;16.10;99.90
3134;DHT22;1577;49.912;10.924;2022-08-21T06:03:31;16.10;99.90
3134;DHT22;1577;49.912;10.924;2022-08-21T06:05:58;16.10;99.90
3134;DHT22;1577;49.912;10.924;2022-08-21T06:08:24;16.10;99.90
3134;DHT22;1577;49.912;10.924;2022-08-21T06:10:52;16.10;99.90
3134;DHT22;1577;49.912;10.924;2022-08-21T06:13:19;16.20;99.90
3134;DHT22;1577;49.912;10.924;2022-08-21T06:15:46;16.20;99.90
3134;DHT22;1577;49.912;10.924;2022-08-21T06:18:12;16.30;99.90
3134;DHT22;1577;49.912;10.924;2022-08-21T06:20:40;16.30;99.90
3134;DHT22;1577;49.912;10.924;2022-08-21T06:23:06;16.40;99.90
3134;DHT22;1577;49.912;10.924;2022-08-21T06:25:32;16.50;99.90
3134;DHT22;1577;49.912;10.924;2022-08-21T06:28:04;16.50;99.90
3134;DHT22;1577;49.912;10.924;2022-08-21T06:30:31;16.60;99.90
3134;DHT22;1577;49.912;10.924;2022-08-21T06:32:57;16.70;99.90
3134;DHT22;1577;49.912;10.924;2022-08-21T06:35:23;16.70;99.90
3134;DHT22;1577;49.912;10.924;2022-08-21T06:37:50;16.70;99.90
3134;DHT22;1577;49.912;10.924;2022-08-21T06:40:16;16.70;99.90
3134;DHT22;1577;49.912;10.924;2022-08-21T06:42:42;16.70;99.90
3134;DHT22;1577;49.912;10.924;2022-08-21T06:45:08;16.80;99.90
3134;DHT22;1577;49.912;10.924;2022-08-21T06:47:36;16.80;99.90
3134;DHT22;1577;49.912;10.924;2022-08-21T06:50:03;16.80;99.90
3134;DHT22;1577;49.912;10.924;2022-08-21T06:52:29;16.90;99.90
3134;DHT22;1577;49.912;10.924;2022-08-21T06:54:54;16.90;99.90
3134;DHT22;1577;49.912;10.924;2022-08-21T06:57:20;17.00;99.90
3134;DHT22;1577;49.912;10.924;2022-08-21T06:59:47;17.00;99.90
3134;DHT22;1577;49.912;10.924;2022-08-21T07:02:12;17.10;99.90
3134;DHT22;1577;49.912;10.924;2022-08-21T07:04:38;17.10;99.90
3134;DHT22;1577;49.912;10.924;2022-08-21T07:07:04;17.10;99.90
3134;DHT22;1577;49.912;10.924;2022-08-21T07:09:29;17.10;99.90
3134;DHT22;1577;49.912;10.924;2022-08-21T07:11:55;17.00;99.90
3134;DHT22;1577;49.912;10.924;2022-08-21T07:14:22;17.00;99.90
3134;DHT22;1577;49.912;10.924;2022-08-21T07:16:48;17.10;99.90
3134;DHT22;1577;49.912;10.924;2022-08-21T07:19:14;17.10;99.90
3134;DHT22;1577;49.912;10.924;2022-08-21T07:21:40;17.20;99.90
3134;DHT22;1577;49.912;10.924;2022-08-21T07:24:06;17.20;99.90
3134;DHT22;1577;49.912;10.924;2022-08-21T07:26:32;17.20;99.90
3134;DHT22;1577;49.912;10.924;2022-08-21T07:28:57;17.30;99.90
3134;DHT22;1577;49.912;10.924;2022-08-21T07:31:24;17.40;99.90
3134;DHT22;1577;49.912;10.924;2022-08-21T07:33:50;17.50;99.90
3134;DHT22;1577;49.912;10.924;2022-08-21T07:36:16;17.70;99.90
3134;DHT22;1577;49.912;10.924;2022-08-21T07:38:42;17.80;99.90
3134;DHT22;1577;49.912;10.924;2022-08-21T07:41:28;18.00;99.90
3134;DHT22;1577;49.912;10.924;2022-08-21T07:43:56;18.00;99.90
3134;DHT22;1577;49.912;10.924;2022-08-21T07:46:23;18.20;99.90
3134;DHT22;1577;49.912;10.924;2022-08-21T07:48:49;18.40;99.90
3134;DHT22;1577;49.912;10.924;2022-08-21T07:51:16;18.50;99.90
3134;DHT22;1577;49.912;10.924;2022-08-21T07:53:42;18.60;99.90
3134;DHT22;1577;49.912;10.924;2022-08-21T07:56:08;18.70;99.90
3134;DHT22;1577;49.912;10.924;2022-08-21T07:58:34;18.90;99.90
3134;DHT22;1577;49.912;10.924;2022-08-21T08:00:59;19.10;99.90
3134;DHT22;1577;49.912;10.924;2022-08-21T08:03:26;19.10;99.90
3134;DHT22;1577;49.912;10.924;2022-08-21T08:05:51;19.30;99.90
3134;DHT22;1577;49.912;10.924;2022-08-21T08:08:17;19.50;99.90
3134;DHT22;1577;49.912;10.924;2022-08-21T08:10:44;19.60;99.90
3134;DHT22;1577;49.912;10.924;2022-08-21T08:13:10;19.90;99.90
3134;DHT22;1577;49.912;10.924;2022-08-21T08:15:36;20.00;99.90
3134;DHT22;1577;49.912;10.924;2022-08-21T08:18:02;20.10;99.90
3134;DHT22;1577;49.912;10.924;2022-08-21T08:20:28;20.10;99.90
3134;DHT22;1577;49.912;10.924;2022-08-21T08:22:55;20.10;99.90
3134;DHT22;1577;49.912;10.924;2022-08-21T08:25:22;20.40;99.90
3134;DHT22;1577;49.912;10.924;2022-08-21T08:27:48;20.80;99.90
3134;DHT22;1577;49.912;10.924;2022-08-21T08:30:15;21.00;99.90
3134;DHT22;1577;49.912;10.924;2022-08-21T08:32:42;20.90;99.90
3134;DHT22;1577;49.912;10.924;2022-08-21T08:35:08;20.80;99.90
3134;DHT22;1577;49.912;10.924;2022-08-21T08:37:35;20.90;99.90
3134;DHT22;1577;49.912;10.924;2022-08-21T08:40:04;20.90;99.90
3134;DHT22;1577;49.912;10.924;2022-08-21T08:42:32;20.90;99.90
3134;DHT22;1577;49.912;10.924;2022-08-21T08:45:05;20.90;99.90
3134;DHT22;1577;49.912;10.924;2022-08-21T08:47:34;20.90;99.90
3134;DHT22;1577;49.912;10.924;2022-08-21T08:50:12;21.10;99.90
3134;DHT22;1577;49.912;10.924;2022-08-21T08:52:49;21.30;99.90
3134;DHT22;1577;49.912;10.924;2022-08-21T08:55:21;21.50;99.90
3134;DHT22;1577;49.912;10.924;2022-08-21T08:57:50;21.60;99.90
3134;DHT22;1577;49.912;10.924;2022-08-21T09:00:18;21.50;99.90
3134;DHT22;1577;49.912;10.924;2022-08-21T09:02:45;21.40;99.90
3134;DHT22;1577;49.912;10.924;2022-08-21T09:05:24;21.60;99.90
3134;DHT22;1577;49.912;10.924;2022-08-21T09:11:16;21.70;99.90
3134;DHT22;1577;49.912;10.924;2022-08-21T09:14:16;21.70;99.90
3134;DHT22;1577;49.912;10.924;2022-08-21T09:17:07;21.80;99.90
3134;DHT22;1577;49.912;10.924;2022-08-21T09:22:40;22.30;99.90
3134;DHT22;1577;49.912;10.924;2022-08-21T09:28:09;22.80;99.90
3134;DHT22;1577;49.912;10.924;2022-08-21T09:30:39;23.00;99.90
3134;DHT22;1577;49.912;10.924;2022-08-21T09:33:06;23.00;99.90
3134;DHT22;1577;49.912;10.924;2022-08-21T09:35:32;23.00;99.90
3134;DHT22;1577;49.912;10.924;2022-08-21T09:38:06;23.00;99.90
3134;DHT22;1577;49.912;10.924;2022-08-21T09:40:42;22.90;99.90
3134;DHT22;1577;49.912;10.924;2022-08-21T09:45:35;23.00;99.90
3134;DHT22;1577;49.912;10.924;2022-08-21T09:50:38;23.10;99.90
3134;DHT22;1577;49.912;10.924;2022-08-21T09:53:04;23.00;99.90
3134;DHT22;1577;49.912;10.924;2022-08-21T09:55:32;22.80;99.90
3134;DHT22;1577;49.912;10.924;2022-08-21T09:58:17;22.90;99.90
3134;DHT22;1577;49.912;10.924;2022-08-21T10:00:44;23.20;99.90
3134;DHT22;1577;49.912;10.924;2022-08-21T10:03:14;23.40;99.90
3134;DHT22;1577;49.912;10.924;2022-08-21T10:05:56;23.70;99.90
3134;DHT22;1577;49.912;10.924;2022-08-21T10:08:24;23.80;99.90
3134;DHT22;1577;49.912;10.924;2022-08-21T10:10:57;23.80;99.90
3134;DHT22;1577;49.912;10.924;2022-08-21T10:18:43;23.50;99.90
3134;DHT22;1577;49.912;10.924;2022-08-21T10:24:02;23.00;99.90
3134;DHT22;1577;49.912;10.924;2022-08-21T10:27:04;22.90;99.90
3134;DHT22;1577;49.912;10.924;2022-08-21T10:40:48;22.60;99.90
3134;DHT22;1577;49.912;10.924;2022-08-21T10:48:24;22.90;99.90
3134;DHT22;1577;49.912;10.924;2022-08-21T10:51:06;22.90;99.90
3134;DHT22;1577;49.912;10.924;2022-08-21T10:56:31;22.60;99.90
3134;DHT22;1577;49.912;10.924;2022-08-21T10:59:30;22.70;99.90
3134;DHT22;1577;49.912;10.924;2022-08-21T11:04:56;22.90;99.90
3134;DHT22;1577;49.912;10.924;2022-08-21T11:07:30;22.80;99.90
3134;DHT22;1577;49.912;10.924;2022-08-21T11:10:15;22.80;99.90
3134;DHT22;1577;49.912;10.924;2022-08-21T11:12:59;22.80;99.90
3134;DHT22;1577;49.912;10.924;2022-08-21T11:26:48;23.10;99.90
3134;DHT22;1577;49.912;10.924;2022-08-21T11:29:25;23.20;99.90
3134;DHT22;1577;49.912;10.924;2022-08-21T11:32:12;23.30;99.90
3134;DHT22;1577;49.912;10.924;2022-08-21T11:40:31;23.50;99.90
3134;DHT22;1577;49.912;10.924;2022-08-21T11:57:04;23.60;99.90
3134;DHT22;1577;49.912;10.924;2022-08-21T11:59:53;23.70;99.90
3134;DHT22;1577;49.912;10.924;2022-08-21T12:02:24;23.80;99.90
3134;DHT22;1577;49.912;10.924;2022-08-21T12:05:08;23.80;99.90
3134;DHT22;1577;49.912;10.924;2022-08-21T12:07:44;23.80;99.90
3134;DHT22;1577;49.912;10.924;2022-08-21T12:10:13;23.90;99.90
3134;DHT22;1577;49.912;10.924;2022-08-21T12:12:42;24.10;99.90
3134;DHT22;1577;49.912;10.924;2022-08-21T12:21:00;24.40;99.90
3134;DHT22;1577;49.912;10.924;2022-08-21T12:23:33;24.50;99.90
3134;DHT22;1577;49.912;10.924;2022-08-21T12:26:19;24.60;99.90
3134;DHT22;1577;49.912;10.924;2022-08-21T12:28:45;24.60;99.90
3134;DHT22;1577;49.912;10.924;2022-08-21T12:31:20;24.60;99.90
3134;DHT22;1577;49.912;10.924;2022-08-21T12:33:55;24.70;99.90
3134;DHT22;1577;49.912;10.924;2022-08-21T12:36:26;24.70;99.90
3134;DHT22;1577;49.912;10.924;2022-08-21T12:38:57;24.80;99.30
3134;DHT22;1577;49.912;10.924;2022-08-21T12:44:14;24.90;99.50
3134;DHT22;1577;49.912;10.924;2022-08-21T12:46:48;24.90;95.60
3134;DHT22;1577;49.912;10.924;2022-08-21T12:49:27;24.80;95.90
3134;DHT22;1577;49.912;10.924;2022-08-21T12:52:03;24.80;97.60
3134;DHT22;1577;49.912;10.924;2022-08-21T12:54:37;24.80;99.90
3134;DHT22;1577;49.912;10.924;2022-08-21T12:57:05;24.90;98.20
3134;DHT22;1577;49.912;10.924;2022-08-21T12:59:32;24.90;97.10
3134;DHT22;1577;49.912;10.924;2022-08-21T13:02:03;24.90;97.00
3134;DHT22;1577;49.912;10.924;2022-08-21T13:04:39;24.90;96.70
3134;DHT22;1577;49.912;10.924;2022-08-21T13:07:11;25.00;97.10
3134;DHT22;1577;49.912;10.924;2022-08-21T13:09:54;25.10;98.70
3134;DHT22;1577;49.912;10.924;2022-08-21T13:12:22;25.00;96.50
3134;DHT22;1577;49.912;10.924;2022-08-21T13:14:50;25.10;95.80
3134;DHT22;1577;49.912;10.924;2022-08-21T13:17:19;25.10;96.10
3134;DHT22;1577;49.912;10.924;2022-08-21T13:19:57;25.10;97.10
3134;DHT22;1577;49.912;10.924;2022-08-21T13:22:24;25.10;95.20
3134;DHT22;1577;49.912;10.924;2022-08-21T13:24:50;25.10;94.60
3134;DHT22;1577;49.912;10.924;2022-08-21T13:30:13;25.20;95.90
3134;DHT22;1577;49.912;10.924;2022-08-21T13:32:42;25.30;94.40
3134;DHT22;1577;49.912;10.924;2022-08-21T13:38:06;25.30;94.70
3134;DHT22;1577;49.912;10.924;2022-08-21T13:40:58;25.30;95.20
3134;DHT22;1577;49.912;10.924;2022-08-21T13:43:32;25.40;95.90
3134;DHT22;1577;49.912;10.924;2022-08-21T13:45:58;25.50;95.20
3134;DHT22;1577;49.912;10.924;2022-08-21T13:48:27;25.50;93.40
3134;DHT22;1577;49.912;10.924;2022-08-21T13:50:54;25.60;92.70
3134;DHT22;1577;49.912;10.924;2022-08-21T13:53:46;25.60;95.20
3134;DHT22;1577;49.912;10.924;2022-08-21T13:56:42;25.70;92.10
3134;DHT22;1577;49.912;10.924;2022-08-21T13:59:08;25.70;92.80
3134;DHT22;1577;49.912;10.924;2022-08-21T14:01:48;25.60;91.90
3134;DHT22;1577;49.912;10.924;2022-08-21T14:04:23;25.70;92.50
3134;DHT22;1577;49.912;10.924;2022-08-21T14:06:50;25.70;91.20
3134;DHT22;1577;49.912;10.924;2022-08-21T14:09:33;25.80;90.50
3134;DHT22;1577;49.912;10.924;2022-08-21T14:12:16;25.80;91.60
3134;DHT22;1577;49.912;10.924;2022-08-21T14:14:42;25.90;90.90
3134;DHT22;1577;49.912;10.924;2022-08-21T14:17:26;26.00;90.90
3134;DHT22;1577;49.912;10.924;2022-08-21T14:19:53;26.00;91.50
3134;DHT22;1577;49.912;10.924;2022-08-21T14:22:46;25.90;87.40
3134;DHT22;1577;49.912;10.924;2022-08-21T14:30:39;26.10;90.20
3134;DHT22;1577;49.912;10.924;2022-08-21T14:33:13;26.20;90.20
3134;DHT22;1577;49.912;10.924;2022-08-21T14:35:40;26.20;88.40
3134;DHT22;1577;49.912;10.924;2022-08-21T14:38:14;26.20;88.50
3134;DHT22;1577;49.912;10.924;2022-08-21T14:40:40;26.10;84.90
3134;DHT22;1577;49.912;10.924;2022-08-21T14:43:07;26.20;88.40
3134;DHT22;1577;49.912;10.924;2022-08-21T14:45:34;26.20;84.40
3134;DHT22;1577;49.912;10.924;2022-08-21T14:48:02;26.20;81.20
3134;DHT22;1577;49.912;10.924;2022-08-21T14:50:28;26.20;86.40
3134;DHT22;1577;49.912;10.924;2022-08-21T14:52:54;26.20;81.30
3134;DHT22;1577;49.912;10.924;2022-08-21T14:55:20;26.30;84.40
3134;DHT22;1577;49.912;10.924;2022-08-21T14:57:48;26.30;84.30
3134;DHT22;1577;49.912;10.924;2022-08-21T15:00:18;26.30;83.80
3134;DHT22;1577;49.912;10.924;2022-08-21T15:02:45;26.30;82.00
3134;DHT22;1577;49.912;10.924;2022-08-21T15:05:11;26.30;82.20
3134;DHT22;1577;49.912;10.924;2022-08-21T15:07:36;26.30;82.50
3134;DHT22;1577;49.912;10.924;2022-08-21T15:10:03;26.30;80.40
3134;DHT22;1577;49.912;10.924;2022-08-21T15:12:29;26.30;84.60
3134;DHT22;1577;49.912;10.924;2022-08-21T15:14:55;26.30;80.60
3134;DHT22;1577;49.912;10.924;2022-08-21T15:17:21;26.30;80.20
3134;DHT22;1577;49.912;10.924;2022-08-21T15:19:46;26.30;82.60
3134;DHT22;1577;49.912;10.924;2022-08-21T15:22:12;26.20;83.10
3134;DHT22;1577;49.912;10.924;2022-08-21T15:24:38;26.10;80.10
3134;DHT22;1577;49.912;10.924;2022-08-21T15:27:04;26.00;80.60
3134;DHT22;1577;49.912;10.924;2022-08-21T15:29:31;26.00;81.30
3134;DHT22;1577;49.912;10.924;2022-08-21T15:32:01;26.00;84.00
3134;DHT22;1577;49.912;10.924;2022-08-21T15:34:29;25.90;82.90
3134;DHT22;1577;49.912;10.924;2022-08-21T15:36:56;25.80;80.50
3134;DHT22;1577;49.912;10.924;2022-08-21T15:39:23;25.90;84.90
3134;DHT22;1577;49.912;10.924;2022-08-21T15:41:49;25.90;83.30
3134;DHT22;1577;49.912;10.924;2022-08-21T15:44:15;25.90;79.90
3134;DHT22;1577;49.912;10.924;2022-08-21T15:46:42;25.90;81.10
3134;DHT22;1577;49.912;10.924;2022-08-21T15:49:10;25.90;79.80
3134;DHT22;1577;49.912;10.924;2022-08-21T15:51:35;26.00;81.20
3134;DHT22;1577;49.912;10.924;2022-08-21T15:54:01;26.00;81.60
3134;DHT22;1577;49.912;10.924;2022-08-21T15:56:34;26.00;81.10
3134;DHT22;1577;49.912;10.924;2022-08-21T15:59:09;26.10;84.60
3134;DHT22;1577;49.912;10.924;2022-08-21T16:01:37;26.00;80.60
3134;DHT22;1577;49.912;10.924;2022-08-21T16:04:04;26.00;78.00
3134;DHT22;1577;49.912;10.924;2022-08-21T16:06:30;26.00;78.00
3134;DHT22;1577;49.912;10.924;2022-08-21T16:08:57;26.10;82.70
3134;DHT22;1577;49.912;10.924;2022-08-21T16:11:23;26.00;81.10
3134;DHT22;1577;49.912;10.924;2022-08-21T16:13:49;25.90;78.20
3134;DHT22;1577;49.912;10.924;2022-08-21T16:16:18;25.90;79.40
3134;DHT22;1577;49.912;10.924;2022-08-21T16:18:46;25.80;79.00
3134;DHT22;1577;49.912;10.924;2022-08-21T16:21:12;25.70;78.50
3134;DHT22;1577;49.912;10.924;2022-08-21T16:23:38;25.60;79.60
3134;DHT22;1577;49.912;10.924;2022-08-21T16:26:06;25.50;80.70
3134;DHT22;1577;49.912;10.924;2022-08-21T16:28:35;25.50;81.10
3134;DHT22;1577;49.912;10.924;2022-08-21T16:31:02;25.40;81.40
3134;DHT22;1577;49.912;10.924;2022-08-21T16:33:36;25.30;81.30
3134;DHT22;1577;49.912;10.924;2022-08-21T16:36:04;25.30;80.90
3134;DHT22;1577;49.912;10.924;2022-08-21T16:38:30;25.30;80.70
3134;DHT22;1577;49.912;10.924;2022-08-21T16:40:58;25.30;80.90
3134;DHT22;1577;49.912;10.924;2022-08-21T16:43:28;25.30;80.50
3134;DHT22;1577;49.912;10.924;2022-08-21T16:45:55;25.30;78.80
3134;DHT22;1577;49.912;10.924;2022-08-21T16:48:22;25.30;77.80
3134;DHT22;1577;49.912;10.924;2022-08-21T16:50:48;25.40;77.30
3134;DHT22;1577;49.912;10.924;2022-08-21T16:53:14;25.40;78.50
3134;DHT22;1577;49.912;10.924;2022-08-21T16:55:40;25.40;80.40
3134;DHT22;1577;49.912;10.924;2022-08-21T16:58:20;25.50;81.20
3134;DHT22;1577;49.912;10.924;2022-08-21T17:00:47;25.50;81.10
3134;DHT22;1577;49.912;10.924;2022-08-21T17:03:15;25.40;81.50
3134;DHT22;1577;49.912;10.924;2022-08-21T17:05:42;25.40;82.60
3134;DHT22;1577;49.912;10.924;2022-08-21T17:08:07;25.30;83.90
3134;DHT22;1577;49.912;10.924;2022-08-21T17:10:34;25.30;83.60
3134;DHT22;1577;49.912;10.924;2022-08-21T17:13:00;25.30;83.10
3134;DHT22;1577;49.912;10.924;2022-08-21T17:15:31;25.20;81.90
3134;DHT22;1577;49.912;10.924;2022-08-21T17:17:58;25.20;81.30
3134;DHT22;1577;49.912;10.924;2022-08-21T17:20:24;25.20;81.70
3134;DHT22;1577;49.912;10.924;2022-08-21T17:22:51;25.10;81.90
3134;DHT22;1577;49.912;10.924;2022-08-21T17:25:17;25.10;81.70
3134;DHT22;1577;49.912;10.924;2022-08-21T17:27:45;25.10;81.30
3134;DHT22;1577;49.912;10.924;2022-08-21T17:30:14;25.00;81.30